createdAt,value
2019-03-30T00:02:03.117Z,28.85
2019-03-30T00:04:30.346Z,25.77
2019-03-30T00:06:57.659Z,27.80
2019-03-30T00:09:24.998Z,32.58
2019-03-30T00:11:52.223Z,33.60
2019-03-30T00:14:19.549Z,37.95
2019-03-30T00:16:46.758Z,32.93
2019-03-30T00:19:14.097Z,34.80
2019-03-30T00:21:41.418Z,41.08
2019-03-30T00:24:08.747Z,38.65
2019-03-30T00:26:35.994Z,34.53
2019-03-30T00:29:03.329Z,37.08
2019-03-30T00:31:30.542Z,39.85
2019-03-30T00:33:57.873Z,37.40
2019-03-30T00:36:25.085Z,29.57
2019-03-30T00:38:52.430Z,35.03
2019-03-30T00:41:19.730Z,28.32
2019-03-30T00:43:47.291Z,33.95
2019-03-30T00:46:14.671Z,24.18
2019-03-30T00:48:41.912Z,26.80
2019-03-30T00:51:09.256Z,31.30
2019-03-30T00:53:36.577Z,32.45
2019-03-30T00:56:03.929Z,35.28
2019-03-30T00:58:31.182Z,27.30
2019-03-30T01:00:58.500Z,32.75
2019-03-30T01:03:25.858Z,28.65
2019-03-30T01:05:53.204Z,35.48
2019-03-30T01:08:20.413Z,33.40
2019-03-30T01:10:47.766Z,30.95
2019-03-30T01:13:14.988Z,33.65
2019-03-30T01:15:42.209Z,31.02
2019-03-30T01:18:09.538Z,30.85
2019-03-30T01:20:36.879Z,30.80
2019-03-30T01:23:04.214Z,36.28
2019-03-30T01:25:31.452Z,33.60
2019-03-30T01:27:58.672Z,35.38
2019-03-30T01:30:26.036Z,30.77
2019-03-30T01:32:53.257Z,37.73
2019-03-30T01:35:20.774Z,35.70
2019-03-30T01:37:48.518Z,39.88
2019-03-30T01:40:15.872Z,48.80
2019-03-30T01:42:43.194Z,50.25
2019-03-30T01:45:10.724Z,41.90
2019-03-30T01:47:38.046Z,40.88
2019-03-30T01:50:27.887Z,41.50
2019-03-30T01:52:55.114Z,39.13
2019-03-30T01:55:22.377Z,41.70
2019-03-30T01:57:49.644Z,53.13
2019-03-30T02:00:17.112Z,50.35
2019-03-30T02:02:44.456Z,52.62
2019-03-30T02:05:11.817Z,47.58
2019-03-30T02:07:39.460Z,47.95
2019-03-30T02:10:08.823Z,43.73
2019-03-30T02:12:36.054Z,42.93
2019-03-30T02:15:03.921Z,46.15
2019-03-30T02:17:31.251Z,55.78
2019-03-30T02:19:58.591Z,53.45
2019-03-30T02:22:25.908Z,52.88
2019-03-30T02:24:53.241Z,54.23
2019-03-30T02:27:20.564Z,50.33
2019-03-30T02:29:47.917Z,64.15
2019-03-30T02:32:15.232Z,61.15
2019-03-30T02:34:42.498Z,52.62
2019-03-30T02:37:09.721Z,45.83
2019-03-30T02:39:37.293Z,45.78
2019-03-30T02:42:04.632Z,44.67
2019-03-30T02:44:31.962Z,44.85
2019-03-30T02:46:59.297Z,42.43
2019-03-30T02:49:26.553Z,39.38
2019-03-30T02:51:53.890Z,41.73
2019-03-30T02:54:21.146Z,53.10
2019-03-30T02:56:48.426Z,54.03
2019-03-30T02:59:15.732Z,44.42
2019-03-30T03:01:43.088Z,50.17
2019-03-30T03:04:10.522Z,45.98
2019-03-30T03:06:37.902Z,52.75
2019-03-30T03:09:07.501Z,54.58
2019-03-30T03:11:34.824Z,53.87
2019-03-30T03:14:02.149Z,47.17
2019-03-30T03:16:29.503Z,43.98
2019-03-30T03:18:56.825Z,46.98
2019-03-30T03:21:24.195Z,48.70
2019-03-30T03:23:51.525Z,52.00
2019-03-30T03:26:18.873Z,51.95
2019-03-30T03:28:46.205Z,46.92
2019-03-30T03:31:13.550Z,63.90
2019-03-30T03:33:40.981Z,49.20
2019-03-30T03:36:08.224Z,55.17
2019-03-30T03:38:35.442Z,42.38
2019-03-30T03:41:03.113Z,55.33
2019-03-30T03:43:30.410Z,57.90
2019-03-30T03:45:57.644Z,72.50
2019-03-30T03:48:24.990Z,70.25
2019-03-30T03:50:59.003Z,67.53
2019-03-30T03:53:26.335Z,67.50
2019-03-30T03:56:16.114Z,53.90
2019-03-30T03:58:46.236Z,52.43
2019-03-30T04:01:16.799Z,59.83
2019-03-30T04:03:46.356Z,58.00
2019-03-30T04:06:15.496Z,61.80
2019-03-30T04:08:44.920Z,46.23
2019-03-30T04:11:14.548Z,50.55
2019-03-30T04:13:45.046Z,45.52
2019-03-30T04:16:12.371Z,49.27
2019-03-30T04:18:39.596Z,46.15
2019-03-30T04:21:06.939Z,65.15
2019-03-30T04:23:34.249Z,55.52
2019-03-30T04:26:01.392Z,55.43
2019-03-30T04:28:28.704Z,64.90
2019-03-30T04:30:55.972Z,61.23
2019-03-30T04:33:23.275Z,58.63
2019-03-30T04:35:50.610Z,60.60
2019-03-30T04:38:17.940Z,57.10
2019-03-30T04:40:45.261Z,70.92
2019-03-30T04:43:12.592Z,62.27
2019-03-30T04:45:39.971Z,60.15
2019-03-30T04:48:07.181Z,74.53
2019-03-30T04:50:34.528Z,83.97
2019-03-30T04:53:01.870Z,86.35
2019-03-30T04:55:29.200Z,92.12
2019-03-30T04:57:57.717Z,91.78
2019-03-30T05:00:25.355Z,83.27
2019-03-30T05:02:52.591Z,71.57
2019-03-30T05:05:19.810Z,99.17
2019-03-30T05:07:47.031Z,100.78
2019-03-30T05:10:14.362Z,81.47
2019-03-30T05:12:41.498Z,94.50
2019-03-30T05:15:08.914Z,82.82
2019-03-30T05:17:46.694Z,104.97
2019-03-30T05:20:05.973Z,104.38
2019-03-30T05:22:33.311Z,96.17
2019-03-30T05:25:00.824Z,88.17
2019-03-30T05:27:28.197Z,71.80
2019-03-30T05:29:55.501Z,78.47
2019-03-30T05:32:22.832Z,80.47
2019-03-30T05:34:50.149Z,69.10
2019-03-30T05:37:17.476Z,74.37
2019-03-30T05:39:45.088Z,72.08
2019-03-30T05:42:12.311Z,65.32
2019-03-30T05:44:39.623Z,60.23
2019-03-30T05:47:06.762Z,61.33
2019-03-30T05:49:34.085Z,59.93
2019-03-30T05:52:01.433Z,65.97
2019-03-30T05:54:28.809Z,59.63
2019-03-30T05:56:55.938Z,56.35
2019-03-30T05:59:23.278Z,54.58
2019-03-30T06:01:51.481Z,55.83
2019-03-30T06:04:18.820Z,54.08
2019-03-30T06:06:46.215Z,57.55
2019-03-30T06:09:13.431Z,47.23
2019-03-30T06:11:40.755Z,54.42
2019-03-30T06:14:07.911Z,62.67
2019-03-30T06:16:35.130Z,57.67
2019-03-30T06:19:02.462Z,51.73
2019-03-30T06:21:29.694Z,36.50
2019-03-30T06:23:57.035Z,53.90
2019-03-30T06:26:24.263Z,34.60
2019-03-30T06:28:51.632Z,37.58
2019-03-30T06:31:18.836Z,35.53
2019-03-30T06:33:46.081Z,35.80
2019-03-30T06:36:13.280Z,35.10
2019-03-30T06:38:40.613Z,38.98
2019-03-30T06:41:07.929Z,39.13
2019-03-30T06:43:35.403Z,36.73
2019-03-30T06:46:02.692Z,39.60
2019-03-30T06:48:30.045Z,28.70
2019-03-30T06:50:57.351Z,26.37
2019-03-30T06:53:24.736Z,20.97
2019-03-30T06:55:52.056Z,22.67
2019-03-30T06:58:19.860Z,22.95
2019-03-30T07:00:47.784Z,17.35
2019-03-30T07:03:15.113Z,20.17
2019-03-30T07:05:43.152Z,18.27
2019-03-30T07:08:31.132Z,19.90
2019-03-30T07:11:01.329Z,18.57
2019-03-30T07:13:31.880Z,19.02
2019-03-30T07:16:00.208Z,17.48
2019-03-30T07:18:28.062Z,19.52
2019-03-30T07:20:55.374Z,20.77
2019-03-30T07:23:22.618Z,16.77
2019-03-30T07:25:49.828Z,18.62
2019-03-30T07:28:17.179Z,16.25
2019-03-30T07:30:44.514Z,16.42
2019-03-30T07:33:11.882Z,19.55
2019-03-30T07:35:39.119Z,16.23
2019-03-30T07:38:06.487Z,16.62
2019-03-30T07:40:34.147Z,15.05
2019-03-30T07:43:02.294Z,17.25
2019-03-30T07:45:29.639Z,17.90
2019-03-30T07:47:57.079Z,16.10
2019-03-30T07:50:24.699Z,15.95
2019-03-30T07:52:52.654Z,16.73
2019-03-30T07:55:20.286Z,17.12
2019-03-30T07:57:47.635Z,15.93
2019-03-30T08:00:15.679Z,16.85
2019-03-30T08:02:43.017Z,16.62
2019-03-30T08:05:10.696Z,15.65
2019-03-30T08:07:38.006Z,16.52
2019-03-30T08:10:05.463Z,15.88
2019-03-30T08:12:32.771Z,17.27
2019-03-30T08:15:00.345Z,19.07
2019-03-30T08:17:27.754Z,16.35
2019-03-30T08:19:54.995Z,15.65
2019-03-30T08:22:22.312Z,17.25
2019-03-30T08:24:49.638Z,18.75
2019-03-30T08:27:16.955Z,16.32
2019-03-30T08:29:44.295Z,16.97
2019-03-30T08:32:11.609Z,16.67
2019-03-30T08:34:38.834Z,18.07
2019-03-30T08:37:06.160Z,16.93
2019-03-30T08:39:33.499Z,17.37
2019-03-30T08:42:01.117Z,16.23
2019-03-30T08:44:28.696Z,17.75
2019-03-30T08:46:56.333Z,16.50
2019-03-30T08:49:23.688Z,16.80
2019-03-30T08:51:51.016Z,17.37
2019-03-30T08:54:18.363Z,16.77
2019-03-30T08:56:45.714Z,16.95
2019-03-30T08:59:12.982Z,20.00
2019-03-30T09:01:40.313Z,16.52
2019-03-30T09:04:07.664Z,17.40
2019-03-30T09:06:35.008Z,18.62
2019-03-30T09:09:04.255Z,17.80
2019-03-30T09:11:31.473Z,16.32
2019-03-30T09:13:58.834Z,17.27
2019-03-30T09:16:26.190Z,17.80
2019-03-30T09:18:53.549Z,16.82
2019-03-30T09:21:20.908Z,16.57
2019-03-30T09:23:48.258Z,17.77
2019-03-30T09:26:16.745Z,17.02
2019-03-30T09:28:44.667Z,18.35
2019-03-30T09:31:12.022Z,18.65
2019-03-30T09:33:39.289Z,17.25
2019-03-30T09:36:06.654Z,20.15
2019-03-30T09:38:33.979Z,19.55
2019-03-30T09:41:01.336Z,18.50
2019-03-30T09:43:28.583Z,19.02
2019-03-30T09:45:55.924Z,20.52
2019-03-30T09:48:23.269Z,18.27
2019-03-30T09:50:50.522Z,19.55
2019-03-30T09:53:17.880Z,19.23
2019-03-30T09:55:45.273Z,19.12
2019-03-30T09:58:12.509Z,19.62
2019-03-30T10:00:40.647Z,17.80
2019-03-30T10:03:07.995Z,21.35
2019-03-30T10:05:35.355Z,18.42
2019-03-30T10:08:02.701Z,18.50
2019-03-30T10:10:30.044Z,19.35
2019-03-30T10:12:57.286Z,17.60
2019-03-30T10:15:24.634Z,18.73
2019-03-30T10:17:51.967Z,19.27
2019-03-30T10:20:19.311Z,18.55
2019-03-30T10:22:46.619Z,18.30
2019-03-30T10:25:13.984Z,19.87
2019-03-30T10:27:41.338Z,19.77
2019-03-30T10:30:11.007Z,18.90
2019-03-30T10:32:38.229Z,19.32
2019-03-30T10:35:05.881Z,17.62
2019-03-30T10:37:33.538Z,19.73
2019-03-30T10:40:00.896Z,18.48
2019-03-30T10:42:28.135Z,17.15
2019-03-30T10:44:55.375Z,17.35
2019-03-30T10:47:22.702Z,16.48
2019-03-30T10:49:50.418Z,16.95
2019-03-30T10:52:17.768Z,20.68
2019-03-30T10:54:52.691Z,19.82
2019-03-30T10:57:14.185Z,15.80
2019-03-30T10:59:41.542Z,17.10
2019-03-30T11:02:08.875Z,15.15
2019-03-30T11:04:37.593Z,18.45
2019-03-30T11:07:05.155Z,17.87
2019-03-30T11:09:32.488Z,17.87
2019-03-30T11:11:59.930Z,17.17
2019-03-30T11:14:27.250Z,15.63
2019-03-30T11:16:54.723Z,17.77
2019-03-30T11:19:22.058Z,18.07
2019-03-30T11:21:49.421Z,19.45
2019-03-30T11:24:16.730Z,18.23
2019-03-30T11:26:44.076Z,17.32
2019-03-30T11:29:11.316Z,20.15
2019-03-30T11:31:38.989Z,20.08
2019-03-30T11:34:06.336Z,15.55
2019-03-30T11:36:33.662Z,15.90
2019-03-30T11:39:00.870Z,17.95
2019-03-30T11:41:28.233Z,19.07
2019-03-30T11:43:55.909Z,16.85
2019-03-30T11:46:23.245Z,14.70
2019-03-30T11:48:50.469Z,14.03
2019-03-30T11:51:17.823Z,15.55
2019-03-30T11:53:45.040Z,17.95
2019-03-30T11:56:12.292Z,14.70
2019-03-30T11:58:39.628Z,15.43
2019-03-30T12:01:06.977Z,15.28
2019-03-30T12:03:34.210Z,18.12
2019-03-30T12:06:01.552Z,19.25
2019-03-30T12:08:28.873Z,17.17
2019-03-30T12:10:56.117Z,14.73
2019-03-30T12:13:23.501Z,15.10
2019-03-30T12:15:50.822Z,17.95
2019-03-30T12:18:18.432Z,15.28
2019-03-30T12:20:45.780Z,16.42
2019-03-30T12:23:13.445Z,17.87
2019-03-30T12:25:40.807Z,15.20
2019-03-30T12:28:08.142Z,11.08
2019-03-30T12:30:35.483Z,17.65
2019-03-30T12:33:03.025Z,12.55
2019-03-30T12:35:30.362Z,11.15
2019-03-30T12:37:57.697Z,10.50
2019-03-30T12:40:25.039Z,9.88
2019-03-30T12:42:52.371Z,8.65
2019-03-30T12:45:19.719Z,13.83
2019-03-30T12:47:47.040Z,12.00
2019-03-30T12:50:14.467Z,9.55
2019-03-30T12:52:41.686Z,13.10
2019-03-30T12:55:09.022Z,15.98
2019-03-30T12:57:36.257Z,18.65
2019-03-30T13:00:04.312Z,17.32
2019-03-30T13:02:31.628Z,17.75
2019-03-30T13:04:58.875Z,12.73
2019-03-30T13:07:26.201Z,17.82
2019-03-30T13:09:53.429Z,13.90
2019-03-30T13:12:20.753Z,12.63
2019-03-30T13:14:47.996Z,11.85
2019-03-30T13:17:15.326Z,10.38
2019-03-30T13:19:43.541Z,12.47
2019-03-30T13:22:10.767Z,9.93
2019-03-30T13:24:38.079Z,11.15
2019-03-30T13:27:05.423Z,10.03
2019-03-30T13:29:33.029Z,14.25
2019-03-30T13:32:00.394Z,12.88
2019-03-30T13:34:27.637Z,12.82
2019-03-30T13:37:06.037Z,12.23
2019-03-30T13:39:33.268Z,11.68
2019-03-30T13:42:00.692Z,13.08
2019-03-30T13:44:28.038Z,13.08
2019-03-30T13:46:55.360Z,13.08
2019-03-30T13:49:22.710Z,13.15
2019-03-30T13:51:50.335Z,14.95
2019-03-30T13:54:17.837Z,19.75
2019-03-30T13:56:45.631Z,13.40
2019-03-30T13:59:12.968Z,10.80
2019-03-30T14:01:40.324Z,12.95
2019-03-30T14:04:08.033Z,13.00
2019-03-30T14:06:36.268Z,10.75
2019-03-30T14:09:05.534Z,10.20
2019-03-30T14:11:32.882Z,12.28
2019-03-30T14:14:00.198Z,11.30
2019-03-30T14:16:27.541Z,12.10
2019-03-30T14:18:54.870Z,12.40
2019-03-30T14:21:22.219Z,13.38
2019-03-30T14:23:50.136Z,12.80
2019-03-30T14:26:30.367Z,13.43
2019-03-30T14:28:46.704Z,12.03
2019-03-30T14:31:13.950Z,11.83
2019-03-30T14:33:41.413Z,10.63
2019-03-30T14:36:08.787Z,10.28
2019-03-30T14:38:36.768Z,10.10
2019-03-30T14:41:06.773Z,10.08
2019-03-30T14:43:34.106Z,12.63
2019-03-30T14:46:01.344Z,9.08
2019-03-30T14:48:28.677Z,15.63
2019-03-30T14:50:56.835Z,10.60
2019-03-30T14:53:24.499Z,10.85
2019-03-30T14:55:51.852Z,9.23
2019-03-30T14:58:19.208Z,10.32
2019-03-30T15:00:47.674Z,11.78
2019-03-30T15:03:14.915Z,13.72
2019-03-30T15:05:42.572Z,19.15
2019-03-30T15:08:09.811Z,15.50
2019-03-30T15:10:37.023Z,12.45
2019-03-30T15:13:04.632Z,11.10
2019-03-30T15:15:32.666Z,16.25
2019-03-30T15:18:00.023Z,13.05
2019-03-30T15:20:27.359Z,14.47
2019-03-30T15:22:54.700Z,15.05
2019-03-30T15:25:22.022Z,14.28
2019-03-30T15:27:49.389Z,11.95
2019-03-30T15:30:16.753Z,11.93
2019-03-30T15:32:44.091Z,14.75
2019-03-30T15:35:11.409Z,14.73
2019-03-30T15:37:38.655Z,15.98
2019-03-30T15:40:06.438Z,15.30
2019-03-30T15:42:33.799Z,15.72
2019-03-30T15:45:01.117Z,15.35
2019-03-30T15:47:28.715Z,16.48
2019-03-30T15:49:56.190Z,17.82
2019-03-30T15:52:25.402Z,15.03
2019-03-30T15:54:52.711Z,14.70
2019-03-30T15:57:20.493Z,15.15
2019-03-30T15:59:48.115Z,13.95
2019-03-30T16:02:15.572Z,18.92
2019-03-30T16:04:42.808Z,16.30
2019-03-30T16:07:10.059Z,15.70
2019-03-30T16:09:37.445Z,14.93
2019-03-30T16:12:04.779Z,15.98
2019-03-30T16:14:34.080Z,14.30
2019-03-30T16:17:01.431Z,14.87
2019-03-30T16:19:28.749Z,16.30
2019-03-30T16:21:56.500Z,15.35
2019-03-30T16:24:45.579Z,16.17
2019-03-30T16:27:27.864Z,16.30
2019-03-30T16:29:42.644Z,18.82
2019-03-30T16:32:09.999Z,16.57
2019-03-30T16:34:37.226Z,17.05
2019-03-30T16:37:04.549Z,19.98
2019-03-30T16:39:34.624Z,18.95
2019-03-30T16:42:01.139Z,16.52
2019-03-30T16:44:28.485Z,17.87
2019-03-30T16:46:57.410Z,17.17
2019-03-30T16:49:24.834Z,17.12
2019-03-30T16:51:52.157Z,18.45
2019-03-30T16:54:19.504Z,15.78
2019-03-30T16:56:46.743Z,19.07
2019-03-30T16:59:14.184Z,20.05
2019-03-30T17:01:41.383Z,15.85
2019-03-30T17:04:08.618Z,17.60
2019-03-30T17:06:35.923Z,17.37
2019-03-30T17:09:04.796Z,21.55
2019-03-30T17:11:32.116Z,44.13
2019-03-30T17:13:59.508Z,20.95
2019-03-30T17:16:26.830Z,23.50
2019-03-30T17:18:54.159Z,20.25
2019-03-30T17:21:21.406Z,20.37
2019-03-30T17:23:48.754Z,17.50
2019-03-30T17:26:15.943Z,21.27
2019-03-30T17:28:43.279Z,20.57
2019-03-30T17:31:10.497Z,18.60
2019-03-30T17:33:37.804Z,17.85
2019-03-30T17:36:05.133Z,18.07
2019-03-30T17:38:32.374Z,17.17
2019-03-30T17:40:59.673Z,22.42
2019-03-30T17:43:27.005Z,19.00
2019-03-30T17:45:54.315Z,17.60
2019-03-30T17:48:21.651Z,17.90
2019-03-30T17:50:48.964Z,18.65
2019-03-30T17:53:17.606Z,19.20
2019-03-30T17:55:48.132Z,23.30
2019-03-30T17:58:15.465Z,21.20
2019-03-30T18:00:42.779Z,21.27
2019-03-30T18:03:10.026Z,19.05
2019-03-30T18:05:37.329Z,20.60
2019-03-30T18:08:06.240Z,19.42
2019-03-30T18:10:33.446Z,24.82
2019-03-30T18:13:02.036Z,26.27
2019-03-30T18:15:29.291Z,22.85
2019-03-30T18:17:57.013Z,24.77
2019-03-30T18:20:37.356Z,21.68
2019-03-30T18:23:04.596Z,24.18
2019-03-30T18:25:31.929Z,23.27
2019-03-30T18:27:59.298Z,20.12
2019-03-30T18:30:37.424Z,26.12
2019-03-30T18:33:04.978Z,19.57
2019-03-30T18:35:32.632Z,23.10
2019-03-30T18:38:00.727Z,23.18
2019-03-30T18:40:29.691Z,21.68
2019-03-30T18:42:57.498Z,25.23
2019-03-30T18:45:25.860Z,20.60
2019-03-30T18:47:59.592Z,21.40
2019-03-30T18:50:26.939Z,21.60
2019-03-30T18:52:54.846Z,20.52
2019-03-30T18:55:22.877Z,23.00
2019-03-30T18:57:50.242Z,24.10
2019-03-30T19:00:25.214Z,19.37
2019-03-30T19:02:52.458Z,17.75
2019-03-30T19:05:19.890Z,19.65
2019-03-30T19:07:47.211Z,18.25
2019-03-30T19:10:14.457Z,22.93
2019-03-30T19:12:41.660Z,18.77
2019-03-30T19:15:09.092Z,16.27
2019-03-30T19:17:36.422Z,21.97
2019-03-30T19:20:04.447Z,22.50
2019-03-30T19:22:31.676Z,20.75
2019-03-30T19:24:59.028Z,16.97
2019-03-30T19:27:26.286Z,17.87
2019-03-30T19:29:53.600Z,20.43
2019-03-30T19:32:20.939Z,20.75
2019-03-30T19:34:48.284Z,20.23
2019-03-30T19:37:15.614Z,20.68
2019-03-30T19:39:42.946Z,17.37
2019-03-30T19:42:10.167Z,22.32
2019-03-30T19:44:37.609Z,22.85
2019-03-30T19:47:04.960Z,19.12
2019-03-30T19:49:33.484Z,25.12
2019-03-30T19:52:20.081Z,21.20
2019-03-30T19:54:47.425Z,24.00
2019-03-30T19:57:14.777Z,27.58
2019-03-30T19:59:42.019Z,21.77
2019-03-30T20:02:09.782Z,27.13
2019-03-30T20:04:37.115Z,26.62
2019-03-30T20:07:04.441Z,23.55
2019-03-30T20:09:31.679Z,25.77
2019-03-30T20:11:58.891Z,23.57
2019-03-30T20:14:26.218Z,26.77
2019-03-30T20:16:53.430Z,26.57
2019-03-30T20:19:20.770Z,39.58
2019-03-30T20:21:48.094Z,42.90
2019-03-30T20:24:15.343Z,34.88
2019-03-30T20:26:42.616Z,31.60
2019-03-30T20:29:24.385Z,31.82
2019-03-30T20:31:39.223Z,34.98
2019-03-30T20:34:06.436Z,35.40
2019-03-30T20:36:35.392Z,30.30
2019-03-30T20:39:22.066Z,33.98
2019-03-30T20:41:49.426Z,38.02
2019-03-30T20:44:16.732Z,38.00
2019-03-30T20:46:44.060Z,34.70
2019-03-30T20:49:11.565Z,34.30
2019-03-30T20:51:38.796Z,34.20
2019-03-30T20:54:06.219Z,31.12
2019-03-30T20:56:33.530Z,36.08
2019-03-30T20:59:00.755Z,30.90
2019-03-30T21:01:28.076Z,33.48
2019-03-30T21:03:55.403Z,31.90
2019-03-30T21:06:22.658Z,35.23
2019-03-30T21:08:49.886Z,34.15
2019-03-30T21:11:17.103Z,33.83
2019-03-30T21:13:44.311Z,33.05
2019-03-30T21:16:11.521Z,31.68
2019-03-30T21:18:38.724Z,28.52
2019-03-30T21:21:08.995Z,33.98
2019-03-30T21:23:35.071Z,29.37
2019-03-30T21:26:02.396Z,29.18
2019-03-30T21:28:29.589Z,34.20
2019-03-30T21:30:56.932Z,32.17
2019-03-30T21:33:24.239Z,32.73
2019-03-30T21:35:51.460Z,31.10
2019-03-30T21:38:18.790Z,31.97
2019-03-30T21:40:46.121Z,33.30
2019-03-30T21:43:13.337Z,33.80
2019-03-30T21:45:40.687Z,31.77
2019-03-30T21:48:07.998Z,42.78
2019-03-30T21:50:35.333Z,31.95
2019-03-30T21:53:02.744Z,31.12
2019-03-30T21:55:29.987Z,33.40
2019-03-30T21:57:57.751Z,31.50
2019-03-30T22:00:33.312Z,37.85
2019-03-30T22:03:00.555Z,37.42
2019-03-30T22:05:28.066Z,33.53
2019-03-30T22:07:55.914Z,36.95
2019-03-30T22:10:27.079Z,34.50
2019-03-30T22:12:54.406Z,32.67
2019-03-30T22:15:26.040Z,34.38
2019-03-30T22:17:53.288Z,34.98
2019-03-30T22:20:21.425Z,37.65
2019-03-30T22:22:48.844Z,36.65
2019-03-30T22:25:16.171Z,37.75
2019-03-30T22:27:43.490Z,39.73
2019-03-30T22:30:24.208Z,37.70
2019-03-30T22:32:40.254Z,35.52
2019-03-30T22:35:07.684Z,38.48
2019-03-30T22:37:34.910Z,39.78
2019-03-30T22:40:02.433Z,37.75
2019-03-30T22:42:29.758Z,37.53
2019-03-30T22:44:56.964Z,36.50
2019-03-30T22:47:24.206Z,39.48
2019-03-30T22:49:51.841Z,39.45
2019-03-30T22:52:20.449Z,36.53
2019-03-30T22:54:48.381Z,40.98
2019-03-30T22:57:15.532Z,38.15
2019-03-30T22:59:42.864Z,36.00
2019-03-30T23:02:10.229Z,39.83
2019-03-30T23:04:37.662Z,42.58
2019-03-30T23:07:04.986Z,41.08
2019-03-30T23:09:32.291Z,43.65
2019-03-30T23:11:59.520Z,48.48
2019-03-30T23:14:26.757Z,38.23
2019-03-30T23:16:54.087Z,35.43
2019-03-30T23:19:21.512Z,37.75
2019-03-30T23:21:48.857Z,35.25
2019-03-30T23:24:16.068Z,39.48
2019-03-30T23:26:43.399Z,39.50
2019-03-30T23:29:10.709Z,37.95
2019-03-30T23:31:37.940Z,39.98
2019-03-30T23:34:05.246Z,39.25
2019-03-30T23:36:32.446Z,43.28
2019-03-30T23:38:59.784Z,37.42
2019-03-30T23:41:27.100Z,38.92
2019-03-30T23:43:54.438Z,39.73
2019-03-30T23:46:21.765Z,39.70
2019-03-30T23:48:49.005Z,44.30
2019-03-30T23:51:18.387Z,41.88
2019-03-30T23:53:45.628Z,41.88
2019-03-30T23:56:20.489Z,40.52
2019-03-30T23:58:47.843Z,41.18
